Time;durP1;ratioP1;P1;durP2;ratioP2;P2;SDS_P1;SDS_P2;PMS_P1;PMS_P2;Temp;Humidity;BMP_temperature;BMP_pressure;BME280_temperature;BME280_humidity;BME280_pressure;Samples;Min_cycle;Max_cycle;Signal;HPM_P1;HPM_P2
2021/12/24 00:01:40;;;;;;;8.55;4.38;;;5.90;99.90;;;;;;4976351;28;20046;-84
2021/12/24 00:04:09;;;;;;;6.05;3.63;;;5.70;99.90;;;;;;4991600;28;20057;-89
2021/12/24 00:06:35;;;;;;;8.05;3.55;;;5.60;99.90;;;;;;4991691;28;20556;-88
2021/12/24 00:09:05;;;;;;;6.97;4.13;;;6.00;99.90;;;;;;4975823;28;20062;-89
2021/12/24 00:11:32;;;;;;;7.00;3.80;;;5.40;99.90;;;;;;4991822;28;20078;-84
2021/12/24 00:14:03;;;;;;;8.48;3.75;;;5.90;99.90;;;;;;4991691;28;20058;-89
2021/12/24 00:16:39;;;;;;;5.97;3.30;;;5.50;99.90;;;;;;5021375;28;20558;-86
2021/12/24 00:35:35;;;;;;;5.53;2.85;;;7.00;99.90;;;;;;5033051;28;20381;-89
2021/12/24 00:38:03;;;;;;;5.28;3.22;;;6.00;99.90;;;;;;5015793;28;20498;-89
2021/12/24 00:40:32;;;;;;;4.38;2.65;;;5.60;99.90;;;;;;5015152;28;20048;-89
2021/12/24 00:42:58;;;;;;;4.30;2.85;;;5.70;99.90;;;;;;5032986;28;20077;-86
2021/12/24 00:45:29;;;;;;;3.60;2.47;;;6.20;99.90;;;;;;5032713;28;20557;-88
2021/12/24 00:47:57;;;;;;;5.13;2.92;;;6.60;99.90;;;;;;5032768;28;20399;-89
2021/12/24 00:50:26;;;;;;;4.85;2.70;;;5.60;99.90;;;;;;5032064;28;20111;-89
2021/12/24 00:53:01;;;;;;;4.90;3.08;;;6.10;99.90;;;;;;5032316;28;20121;-88
2021/12/24 00:55:29;;;;;;;3.35;2.03;;;6.00;99.90;;;;;;5032812;28;20501;-88
2021/12/24 00:58:00;;;;;;;4.78;2.85;;;6.00;99.90;;;;;;5032523;28;20136;-88
2021/12/24 01:00:32;;;;;;;5.25;3.05;;;6.30;99.90;;;;;;5032249;28;20112;-88
2021/12/24 01:02:59;;;;;;;5.82;3.20;;;5.90;99.90;;;;;;5032722;28;20050;-87
2021/12/24 01:05:27;;;;;;;5.20;2.88;;;5.70;99.90;;;;;;5032868;28;20111;-89
2021/12/24 01:07:53;;;;;;;5.90;3.17;;;5.70;99.90;;;;;;4998174;28;20047;-87
2021/12/24 01:10:27;;;;;;;5.10;2.70;;;5.70;99.90;;;;;;5032771;28;20041;-89
2021/12/24 01:12:54;;;;;;;3.78;2.17;;;5.70;99.90;;;;;;5032403;28;20057;-88
2021/12/24 01:15:20;;;;;;;5.55;2.58;;;5.70;99.90;;;;;;5032016;28;20057;-88
2021/12/24 01:20:44;;;;;;;3.00;2.10;;;6.20;99.90;;;;;;4990662;28;20166;-88
2021/12/24 01:26:02;;;;;;;4.13;2.55;;;6.20;99.90;;;;;;4990159;28;20043;-88
2021/12/24 01:44:34;;;;;;;3.70;2.13;;;5.90;99.90;;;;;;4994567;28;20057;-88
2021/12/24 01:47:03;;;;;;;3.35;1.83;;;6.30;99.90;;;;;;4994492;28;20050;-88
2021/12/24 01:49:29;;;;;;;3.88;2.30;;;5.90;99.90;;;;;;4994219;28;20046;-86
2021/12/24 01:51:57;;;;;;;3.72;1.75;;;5.90;99.90;;;;;;4994183;28;20062;-89
2021/12/24 01:54:22;;;;;;;3.17;1.80;;;6.80;99.90;;;;;;4993979;28;20050;-88
2021/12/24 01:56:48;;;;;;;3.33;1.75;;;6.00;99.90;;;;;;5002138;28;20045;-88
2021/12/24 01:59:14;;;;;;;3.22;1.48;;;6.50;99.90;;;;;;5036115;28;20127;-87
2021/12/24 02:01:40;;;;;;;3.35;1.40;;;6.80;99.90;;;;;;5035424;28;20037;-88
2021/12/24 02:04:06;;;;;;;2.80;1.83;;;6.00;99.90;;;;;;5036198;28;20103;-90
2021/12/24 02:06:32;;;;;;;4.80;1.80;;;6.90;99.90;;;;;;5036158;28;20045;-88
2021/12/24 02:08:58;;;;;;;2.72;1.38;;;6.10;99.90;;;;;;5035866;28;20067;-90
2021/12/24 02:11:24;;;;;;;2.20;1.48;;;6.10;99.90;;;;;;5035112;28;20041;-86
2021/12/24 02:13:52;;;;;;;2.53;1.40;;;6.30;99.90;;;;;;5035331;28;20057;-88
2021/12/24 02:16:38;;;;;;;2.13;1.10;;;6.70;99.90;;;;;;5035333;28;20052;-87
2021/12/24 02:30:04;;;;;;;1.45;0.80;;;6.50;99.90;;;;;;5035077;28;20075;-87
2021/12/24 02:32:30;;;;;;;1.40;0.80;;;6.10;99.90;;;;;;5034975;28;20045;-86
2021/12/24 02:34:55;;;;;;;2.45;1.55;;;6.30;99.90;;;;;;5017061;28;20037;-87
2021/12/24 02:37:21;;;;;;;2.45;1.10;;;6.20;99.90;;;;;;5035277;28;20103;-88
2021/12/24 02:39:47;;;;;;;1.50;0.90;;;6.70;99.90;;;;;;5035421;28;20037;-87
2021/12/24 02:42:14;;;;;;;1.38;0.90;;;6.20;99.90;;;;;;5034779;28;20107;-87
2021/12/24 02:44:40;;;;;;;1.77;1.00;;;6.20;99.90;;;;;;5035230;28;20451;-88
2021/12/24 02:47:14;;;;;;;1.63;1.00;;;6.30;99.90;;;;;;5034910;28;20128;-85
2021/12/24 02:55:00;;;;;;;1.70;1.00;;;6.50;99.90;;;;;;5019548;28;20060;-86
2021/12/24 02:57:28;;;;;;;2.38;1.25;;;7.20;99.90;;;;;;5034771;28;20403;-88
2021/12/24 03:00:07;;;;;;;1.60;0.90;;;6.80;99.90;;;;;;5016555;28;20048;-88
2021/12/24 03:02:38;;;;;;;1.65;0.95;;;7.00;99.90;;;;;;5032361;28;20163;-89
2021/12/24 03:05:05;;;;;;;1.73;0.85;;;6.40;99.90;;;;;;5034700;28;20128;-89
2021/12/24 03:07:31;;;;;;;1.65;0.77;;;6.40;99.90;;;;;;5034896;28;20344;-88
2021/12/24 03:09:58;;;;;;;0.82;0.65;;;6.50;99.90;;;;;;5017242;28;20056;-87
2021/12/24 03:12:25;;;;;;;1.00;0.70;;;6.40;99.90;;;;;;5034369;28;20116;-87
2021/12/24 03:14:51;;;;;;;1.73;0.90;;;6.40;99.90;;;;;;5034145;28;20095;-86
2021/12/24 03:17:20;;;;;;;1.90;1.30;;;6.80;99.90;;;;;;5034973;28;20045;-88
2021/12/24 03:19:46;;;;;;;1.42;1.05;;;6.50;99.90;;;;;;5035322;28;20045;-86
2021/12/24 03:24:37;;;;;;;2.20;1.10;;;6.50;99.90;;;;;;5043881;28;20056;-82
2021/12/24 03:27:06;;;;;;;1.65;0.93;;;6.50;99.90;;;;;;5050687;28;20049;-87
2021/12/24 03:29:33;;;;;;;1.90;1.17;;;6.50;99.90;;;;;;5022817;28;20095;-88
2021/12/24 03:31:59;;;;;;;1.92;1.02;;;6.90;99.90;;;;;;4999232;28;20053;-88
2021/12/24 03:34:25;;;;;;;1.25;0.90;;;6.90;99.90;;;;;;5032102;28;20113;-86
2021/12/24 03:36:51;;;;;;;2.20;1.15;;;6.60;99.90;;;;;;5042863;28;20037;-86
2021/12/24 03:39:17;;;;;;;1.83;1.13;;;7.00;99.90;;;;;;5036808;28;20449;-86
2021/12/24 03:41:44;;;;;;;2.08;1.08;;;6.10;99.90;;;;;;5034059;28;20471;-85
2021/12/24 03:44:12;;;;;;;2.15;1.25;;;6.60;99.90;;;;;;5035104;28;20048;-88
2021/12/24 03:47:08;;;;;;;2.95;1.35;;;7.00;99.90;;;;;;5016569;28;20033;-87
2021/12/24 03:49:38;;;;;;;3.88;1.77;;;6.70;99.90;;;;;;5033252;28;20077;-89
2021/12/24 03:54:56;;;;;;;4.00;2.13;;;6.80;99.90;;;;;;5033984;28;20049;-89
2021/12/24 03:57:28;;;;;;;4.75;1.80;;;6.80;99.90;;;;;;5032802;28;20120;-86
2021/12/24 03:59:56;;;;;;;6.35;3.15;;;6.80;99.90;;;;;;5016079;28;20045;-86
2021/12/24 04:02:22;;;;;;;4.90;1.90;;;6.90;99.90;;;;;;5033586;28;20533;-88
2021/12/24 04:04:48;;;;;;;8.93;4.00;;;7.10;99.90;;;;;;5034126;28;20077;-89
2021/12/24 04:07:15;;;;;;;7.72;2.78;;;6.90;99.90;;;;;;5033522;28;20037;-87
2021/12/24 04:09:49;;;;;;;8.30;3.17;;;7.40;99.90;;;;;;5033248;28;20038;-87
2021/12/24 04:12:15;;;;;;;9.25;3.25;;;6.90;99.90;;;;;;5033067;28;20136;-88
2021/12/24 04:14:41;;;;;;;6.78;2.70;;;6.60;99.90;;;;;;5033390;28;20053;-88
2021/12/24 04:17:08;;;;;;;9.02;3.72;;;7.00;99.90;;;;;;5033077;28;20052;-90
2021/12/24 04:24:51;;;;;;;9.43;3.63;;;7.10;99.90;;;;;;5032569;28;20096;-89
2021/12/24 04:25:07;;;;;;;10.55;4.20;;;7.90;99.90;;;;;;5032819;28;20049;-89
2021/12/24 04:27:33;;;;;;;12.35;4.72;;;7.20;99.90;;;;;;5031245;28;20045;-89
2021/12/24 04:30:08;;;;;;;12.68;4.35;;;7.20;99.90;;;;;;5032676;28;20033;-89
2021/12/24 04:32:49;;;;;;;9.25;3.78;;;7.70;99.90;;;;;;5033122;28;20088;-88
2021/12/24 05:03:28;;;;;;;19.65;7.47;;;8.50;99.90;;;;;;4914555;29;20044;-89
2021/12/24 05:06:07;;;;;;;18.70;7.53;;;7.90;99.90;;;;;;4914498;29;20052;-90
2021/12/24 05:09:08;;;;;;;19.83;8.93;;;7.70;99.90;;;;;;4903129;29;20122;-88
2021/12/24 05:11:25;;;;;;;25.88;10.10;;;7.90;99.90;;;;;;4933043;29;20119;-89
2021/12/24 05:13:53;;;;;;;26.00;10.43;;;8.10;99.90;;;;;;4933375;29;20454;-81
2021/12/24 05:16:38;;;;;;;18.50;8.75;;;7.90;99.90;;;;;;4933476;29;20059;-88
2021/12/24 05:21:51;;;;;;;27.50;10.80;;;8.50;99.90;;;;;;4931118;29;20460;-86
2021/12/24 05:24:19;;;;;;;24.40;9.00;;;7.90;99.90;;;;;;4962600;28;20051;-89
2021/12/24 05:26:47;;;;;;;23.08;9.70;;;7.90;99.90;;;;;;4993177;28;20049;-89
2021/12/24 05:29:14;;;;;;;17.33;8.02;;;8.20;99.90;;;;;;4991632;28;20035;-88
2021/12/24 05:31:40;;;;;;;19.85;9.10;;;7.90;99.90;;;;;;4980730;28;20121;-88
2021/12/24 05:34:06;;;;;;;24.83;10.02;;;7.90;99.90;;;;;;4957108;28;20125;-88
2021/12/24 05:36:32;;;;;;;25.80;10.05;;;8.70;99.90;;;;;;4975576;28;20054;-86
2021/12/24 05:38:57;;;;;;;24.15;10.35;;;8.00;99.90;;;;;;4989526;28;20058;-85
2021/12/24 05:41:23;;;;;;;24.25;11.68;;;8.00;99.90;;;;;;4984576;28;20047;-87
2021/12/24 05:43:50;;;;;;;31.55;10.85;;;8.60;99.90;;;;;;4988777;28;20046;-90
2021/12/24 05:46:22;;;;;;;21.27;10.95;;;8.70;99.90;;;;;;5024159;28;20125;-84
2021/12/24 05:48:47;;;;;;;25.10;10.75;;;7.90;99.90;;;;;;5030967;28;20114;-87
2021/12/24 05:51:13;;;;;;;21.10;9.60;;;8.00;99.90;;;;;;5015054;28;20114;-87
2021/12/24 05:53:39;;;;;;;31.00;12.52;;;8.40;99.90;;;;;;4997644;28;20054;-88
2021/12/24 05:56:05;;;;;;;21.52;10.48;;;7.70;99.90;;;;;;4993480;28;20042;-89
2021/12/24 05:58:30;;;;;;;24.38;10.55;;;8.00;99.90;;;;;;4993107;28;20046;-88
2021/12/24 06:00:57;;;;;;;23.83;9.88;;;8.00;99.90;;;;;;4992943;28;20046;-89
2021/12/24 06:03:23;;;;;;;28.02;10.13;;;8.10;99.90;;;;;;4993027;28;20100;-89
2021/12/24 06:05:49;;;;;;;14.70;7.47;;;8.40;99.90;;;;;;4993340;28;20038;-89
2021/12/24 06:08:14;;;;;;;20.50;9.88;;;8.10;99.90;;;;;;4992654;28;20039;-89
2021/12/24 06:10:41;;;;;;;22.30;9.27;;;8.60;99.90;;;;;;4973704;28;20035;-89
2021/12/24 06:13:08;;;;;;;23.05;8.52;;;8.60;99.90;;;;;;4956119;28;20051;-90
2021/12/24 06:15:42;;;;;;;18.67;8.02;;;8.30;99.90;;;;;;4973541;28;20051;-90
2021/12/24 06:18:19;;;;;;;16.33;7.43;;;8.00;99.90;;;;;;4973626;28;20046;-90
2021/12/24 06:20:44;;;;;;;21.77;7.43;;;7.90;99.90;;;;;;4956503;28;20047;-89
2021/12/24 06:23:10;;;;;;;20.92;7.60;;;8.50;99.90;;;;;;4978452;28;20047;-89
2021/12/24 06:25:36;;;;;;;19.05;7.40;;;8.10;99.90;;;;;;4976654;28;20046;-90
2021/12/24 06:28:02;;;;;;;21.27;7.55;;;8.10;99.90;;;;;;4976724;28;20484;-90
2021/12/24 06:30:29;;;;;;;28.60;7.55;;;8.20;99.90;;;;;;4977996;28;20043;-90
2021/12/24 06:32:56;;;;;;;16.77;6.07;;;8.20;99.90;;;;;;4976865;28;20120;-90
2021/12/24 06:35:23;;;;;;;15.50;6.22;;;8.50;99.90;;;;;;4976856;28;20050;-86
2021/12/24 06:37:53;;;;;;;18.52;5.90;;;8.40;99.90;;;;;;4976746;28;20038;-90
2021/12/24 06:40:21;;;;;;;17.25;6.30;;;8.40;99.90;;;;;;4978257;28;20406;-90
2021/12/24 06:42:49;;;;;;;16.23;5.65;;;8.30;99.90;;;;;;4995874;28;20436;-89
2021/12/24 06:45:19;;;;;;;12.90;5.70;;;8.30;99.90;;;;;;4995656;28;20043;-90
2021/12/24 06:47:46;;;;;;;11.25;4.63;;;8.20;99.90;;;;;;4996008;28;20050;-90
2021/12/24 06:50:12;;;;;;;11.88;3.72;;;8.10;99.90;;;;;;4978210;28;20133;-89
2021/12/24 06:52:38;;;;;;;6.22;2.65;;;8.00;99.90;;;;;;4995763;28;20046;-89
2021/12/24 06:55:08;;;;;;;4.45;2.45;;;8.40;99.90;;;;;;4978805;28;20050;-90
2021/12/24 06:57:34;;;;;;;6.10;2.22;;;7.90;99.90;;;;;;4994835;28;20090;-89
2021/12/24 06:59:59;;;;;;;5.45;2.70;;;7.90;99.90;;;;;;4994347;28;20135;-89
2021/12/24 07:02:25;;;;;;;3.90;1.65;;;8.10;99.90;;;;;;4995668;28;20042;-90
2021/12/24 07:04:51;;;;;;;4.43;2.13;;;7.60;99.90;;;;;;4978349;28;20042;-89
2021/12/24 07:07:16;;;;;;;2.65;1.38;;;7.90;99.90;;;;;;4995636;28;20046;-90
2021/12/24 07:09:42;;;;;;;4.20;1.75;;;7.50;99.90;;;;;;4993602;28;20400;-89
2021/12/24 07:12:12;;;;;;;4.03;1.38;;;7.40;99.90;;;;;;4995319;28;20105;-89
2021/12/24 07:14:41;;;;;;;4.97;1.60;;;7.90;99.90;;;;;;4977789;28;20046;-89
2021/12/24 07:17:08;;;;;;;2.60;1.40;;;7.30;99.90;;;;;;4995737;28;20093;-88
2021/12/24 07:19:34;;;;;;;2.55;1.05;;;7.40;99.90;;;;;;4975893;28;20489;-90
2021/12/24 07:22:00;;;;;;;2.22;1.00;;;7.70;99.90;;;;;;4975836;28;20074;-90
2021/12/24 07:24:25;;;;;;;3.25;1.00;;;7.70;99.90;;;;;;4975548;28;20509;-89
2021/12/24 07:26:51;;;;;;;3.78;0.80;;;7.70;99.90;;;;;;4975941;28;20126;-81
2021/12/24 07:29:17;;;;;;;1.20;0.70;;;7.10;99.90;;;;;;4975780;28;20460;-90
2021/12/24 07:31:43;;;;;;;1.67;0.85;;;7.40;99.90;;;;;;4975737;28;20042;-87
2021/12/24 07:34:08;;;;;;;0.85;0.50;;;7.30;99.90;;;;;;4975377;28;20074;-89
2021/12/24 07:36:34;;;;;;;1.05;0.63;;;7.00;99.90;;;;;;4975910;28;20053;-89
2021/12/24 07:38:59;;;;;;;0.82;0.45;;;7.50;99.90;;;;;;4975425;28;20053;-92
2021/12/24 07:41:26;;;;;;;1.27;0.52;;;7.60;99.90;;;;;;4992783;28;20030;-88
2021/12/24 07:43:52;;;;;;;0.90;0.50;;;7.80;99.90;;;;;;4989578;28;20065;-83
2021/12/24 07:46:19;;;;;;;0.80;0.40;;;7.20;99.90;;;;;;4987560;28;20080;-88
2021/12/24 07:48:48;;;;;;;0.65;0.40;;;7.00;99.90;;;;;;4994871;28;20046;-89
2021/12/24 07:54:00;;;;;;;0.70;0.40;;;7.30;99.90;;;;;;4994399;28;20407;-91
2021/12/24 07:56:30;;;;;;;0.63;0.50;;;7.00;99.90;;;;;;4994432;28;20530;-89
2021/12/24 07:58:56;;;;;;;0.38;0.30;;;7.50;99.90;;;;;;4994679;28;20389;-88
2021/12/24 08:01:25;;;;;;;1.30;0.63;;;7.70;99.90;;;;;;4988594;28;20045;-87
2021/12/24 08:03:52;;;;;;;2.00;0.70;;;7.30;99.90;;;;;;4974362;28;20057;-88
2021/12/24 08:06:18;;;;;;;2.05;0.80;;;7.60;99.90;;;;;;4989910;28;20054;-89
2021/12/24 08:08:43;;;;;;;2.38;0.88;;;6.90;99.90;;;;;;4977009;28;20061;-88
2021/12/24 08:11:09;;;;;;;1.77;0.75;;;7.30;99.90;;;;;;4986384;28;20039;-89
2021/12/24 08:13:35;;;;;;;2.25;1.10;;;6.90;99.90;;;;;;4982544;28;20039;-90
2021/12/24 08:16:01;;;;;;;2.03;1.20;;;6.90;99.90;;;;;;4992048;28;20481;-87
2021/12/24 08:18:26;;;;;;;1.83;1.15;;;7.00;99.90;;;;;;4976149;28;20039;-90
2021/12/24 08:20:52;;;;;;;2.53;0.90;;;7.20;99.90;;;;;;4976477;28;20152;-84
2021/12/24 08:23:18;;;;;;;2.13;0.95;;;7.10;99.90;;;;;;4993867;28;20053;-84
2021/12/24 08:25:44;;;;;;;3.13;1.10;;;6.90;99.90;;;;;;4976047;28;20078;-84
2021/12/24 08:28:09;;;;;;;2.65;1.13;;;7.60;99.90;;;;;;4977023;28;20072;-84
2021/12/24 08:30:35;;;;;;;1.75;1.17;;;7.20;99.90;;;;;;4992745;28;20038;-89
2021/12/24 08:33:01;;;;;;;2.72;1.45;;;7.00;99.90;;;;;;4993786;28;20050;-89
2021/12/24 08:35:28;;;;;;;3.97;1.50;;;7.50;99.90;;;;;;4992198;28;20081;-89
2021/12/24 08:37:55;;;;;;;4.25;1.75;;;7.20;99.90;;;;;;4976351;28;20050;-87
2021/12/24 08:40:21;;;;;;;3.03;1.55;;;7.30;99.90;;;;;;4976661;28;20591;-89
2021/12/24 08:42:47;;;;;;;3.50;1.80;;;7.40;99.90;;;;;;4960373;28;20059;-84
2021/12/24 08:45:13;;;;;;;3.08;1.50;;;7.20;99.90;;;;;;4959686;28;20050;-89
2021/12/24 08:47:39;;;;;;;3.13;1.65;;;7.50;99.90;;;;;;4961385;28;20093;-84
2021/12/24 08:50:08;;;;;;;2.20;1.35;;;7.50;99.90;;;;;;4973882;28;20447;-88
2021/12/24 08:52:33;;;;;;;3.40;1.30;;;6.90;99.90;;;;;;4975492;28;20105;-85
2021/12/24 08:54:59;;;;;;;1.90;1.30;;;6.90;99.90;;;;;;4974084;28;20047;-87
2021/12/24 08:57:25;;;;;;;2.65;1.30;;;7.30;99.90;;;;;;4956379;28;20408;-88
2021/12/24 08:59:50;;;;;;;2.13;1.10;;;6.50;99.90;;;;;;4962228;28;20176;-84
2021/12/24 09:02:17;;;;;;;1.50;0.95;;;6.60;99.90;;;;;;4975660;28;20042;-87
2021/12/24 09:04:43;;;;;;;1.75;1.10;;;6.40;99.90;;;;;;4993640;28;20129;-87
2021/12/24 09:07:10;;;;;;;2.35;1.35;;;6.40;99.90;;;;;;4988829;28;20122;-85
2021/12/24 09:09:36;;;;;;;4.72;1.90;;;6.80;99.90;;;;;;4975770;28;20051;-84
2021/12/24 09:12:02;;;;;;;5.25;1.98;;;6.50;99.90;;;;;;4992886;28;20102;-87
2021/12/24 09:14:28;;;;;;;3.45;1.90;;;6.20;99.90;;;;;;4975012;28;20121;-84
2021/12/24 09:16:53;;;;;;;3.03;1.50;;;6.20;99.90;;;;;;4995899;28;20125;-85
2021/12/24 09:19:24;;;;;;;4.32;1.60;;;6.10;99.90;;;;;;5013051;28;20037;-84
2021/12/24 09:21:50;;;;;;;3.85;1.48;;;6.30;99.90;;;;;;5013044;28;20038;-86
2021/12/24 09:24:18;;;;;;;5.70;2.17;;;6.10;99.90;;;;;;5012959;28;20062;-85
2021/12/24 09:26:44;;;;;;;3.10;1.60;;;6.40;99.90;;;;;;5011230;28;20514;-86
2021/12/24 09:29:11;;;;;;;2.80;1.45;;;6.60;99.90;;;;;;4962789;28;20087;-84
2021/12/24 09:31:37;;;;;;;2.92;1.73;;;5.90;99.90;;;;;;4977460;28;20038;-85
2021/12/24 09:34:03;;;;;;;3.42;1.55;;;6.00;99.90;;;;;;4976118;28;20043;-87
2021/12/24 09:36:29;;;;;;;3.83;1.58;;;6.00;99.90;;;;;;4963555;28;20110;-87
2021/12/24 09:38:58;;;;;;;3.35;1.95;;;6.10;99.90;;;;;;4966007;28;20141;-84
2021/12/24 09:41:24;;;;;;;3.35;1.60;;;5.90;99.90;;;;;;4977253;28;20130;-85
2021/12/24 09:43:51;;;;;;;4.80;1.73;;;5.90;99.90;;;;;;4971372;28;20457;-82
2021/12/24 09:46:17;;;;;;;4.43;2.10;;;5.90;99.90;;;;;;4974418;28;20063;-81
2021/12/24 09:48:43;;;;;;;2.55;1.45;;;6.20;99.90;;;;;;4981896;28;20097;-83
2021/12/24 09:51:10;;;;;;;3.00;1.67;;;6.40;99.90;;;;;;4975374;28;20440;-83
2021/12/24 09:53:38;;;;;;;2.80;1.48;;;5.90;99.90;;;;;;4992679;28;20050;-82
2021/12/24 09:56:05;;;;;;;4.80;1.52;;;6.40;99.90;;;;;;4976274;28;20045;-83
2021/12/24 09:58:31;;;;;;;2.22;1.45;;;5.90;99.90;;;;;;4994199;28;20408;-83
2021/12/24 10:00:57;;;;;;;2.45;1.33;;;5.90;99.90;;;;;;4976230;28;20046;-84
2021/12/24 10:03:36;;;;;;;3.72;1.40;;;6.50;99.90;;;;;;4977234;28;20051;-80
2021/12/24 10:06:03;;;;;;;2.60;1.60;;;5.80;99.90;;;;;;4996254;28;20128;-83
2021/12/24 10:08:29;;;;;;;2.20;1.23;;;5.80;99.90;;;;;;4996263;28;20042;-85
2021/12/24 10:11:09;;;;;;;2.17;1.00;;;6.00;99.90;;;;;;4979991;28;20074;-84
2021/12/24 10:13:43;;;;;;;3.45;1.60;;;5.80;99.90;;;;;;4994110;28;20082;-85
2021/12/24 10:16:13;;;;;;;2.22;1.10;;;5.50;99.90;;;;;;4990536;28;20042;-90
2021/12/24 10:18:51;;;;;;;2.38;1.00;;;5.70;99.90;;;;;;4976920;28;20070;-92
2021/12/24 10:21:25;;;;;;;1.98;1.10;;;6.00;99.90;;;;;;4978171;28;20061;-91
2021/12/24 10:24:02;;;;;;;2.63;1.30;;;5.50;99.90;;;;;;4977134;28;20051;-90
2021/12/24 10:26:28;;;;;;;2.50;1.30;;;5.80;99.90;;;;;;4978023;28;20042;-86
2021/12/24 10:29:04;;;;;;;2.72;1.38;;;5.60;99.90;;;;;;4977024;28;20105;-86
2021/12/24 10:31:39;;;;;;;2.25;1.10;;;5.60;99.90;;;;;;4998741;28;20080;-87
2021/12/24 10:34:19;;;;;;;2.45;1.23;;;5.60;99.90;;;;;;5014700;28;20050;-92
2021/12/24 10:36:58;;;;;;;3.33;1.45;;;5.60;99.90;;;;;;5000451;28;20424;-91
2021/12/24 10:39:45;;;;;;;2.33;1.20;;;5.50;99.90;;;;;;4978164;28;20038;-88
2021/12/24 10:42:12;;;;;;;2.40;1.13;;;5.50;99.90;;;;;;4898517;29;20057;-90
2021/12/24 10:44:40;;;;;;;3.28;1.15;;;5.50;99.90;;;;;;4897995;29;20511;-90
2021/12/24 10:47:06;;;;;;;2.00;1.02;;;6.10;99.90;;;;;;4900907;29;20062;-90
2021/12/24 10:54:56;;;;;;;1.38;0.80;;;5.40;99.90;;;;;;4897797;29;20506;-87
2021/12/24 10:57:25;;;;;;;2.55;1.10;;;5.40;99.90;;;;;;4913926;29;20442;-90
2021/12/24 10:59:54;;;;;;;2.03;1.20;;;5.40;99.90;;;;;;4911401;29;20060;-88
2021/12/24 11:02:26;;;;;;;2.40;1.00;;;5.40;99.90;;;;;;4916104;29;20422;-87
2021/12/24 11:04:53;;;;;;;2.25;1.35;;;5.50;99.90;;;;;;4901199;29;20435;-88
2021/12/24 11:07:34;;;;;;;1.42;0.80;;;5.90;99.90;;;;;;4908000;29;20088;-90
2021/12/24 11:10:14;;;;;;;1.50;0.90;;;5.30;99.90;;;;;;4897525;29;20083;-88
2021/12/24 11:12:45;;;;;;;1.40;0.90;;;5.30;99.90;;;;;;4888457;29;20060;-90
2021/12/24 11:15:31;;;;;;;1.20;0.75;;;5.30;99.90;;;;;;4881721;29;20056;-91
2021/12/24 11:17:58;;;;;;;;;;;5.30;99.90;;;;;;4899437;29;20060;-92
2021/12/24 11:20:24;;;;;;;1.30;0.73;;;5.40;99.90;;;;;;4971332;28;19945;-86
2021/12/24 11:23:07;;;;;;;1.63;0.88;;;5.30;99.90;;;;;;4978773;28;20046;-88
2021/12/24 11:25:37;;;;;;;1.48;0.70;;;5.30;99.90;;;;;;4975647;28;20125;-88
2021/12/24 11:28:05;;;;;;;1.95;0.90;;;5.30;99.90;;;;;;4975442;28;20054;-89
2021/12/24 11:30:32;;;;;;;1.60;0.80;;;5.30;99.90;;;;;;4975850;28;20453;-88
2021/12/24 11:32:58;;;;;;;1.67;0.80;;;5.50;99.90;;;;;;4975578;28;20070;-88
2021/12/24 11:35:26;;;;;;;1.42;0.80;;;5.40;99.90;;;;;;4975443;28;20050;-86
2021/12/24 11:37:53;;;;;;;1.70;1.25;;;5.40;99.90;;;;;;4958343;28;20105;-87
2021/12/24 11:40:21;;;;;;;1.95;0.93;;;6.00;99.90;;;;;;4977099;28;20125;-86
2021/12/24 11:42:52;;;;;;;1.50;0.80;;;6.10;99.90;;;;;;4975200;28;20109;-87
2021/12/24 11:45:23;;;;;;;2.05;1.00;;;6.10;99.90;;;;;;4975456;28;20077;-86
2021/12/24 11:47:50;;;;;;;2.08;1.02;;;5.40;99.90;;;;;;4975566;28;20047;-89
2021/12/24 11:50:16;;;;;;;1.95;0.95;;;5.60;99.90;;;;;;4975369;28;20086;-86
2021/12/24 11:52:45;;;;;;;1.50;0.90;;;5.40;99.90;;;;;;4975359;28;20097;-88
2021/12/24 11:55:11;;;;;;;1.92;1.05;;;5.80;99.90;;;;;;4970690;28;20095;-87
2021/12/24 11:57:56;;;;;;;1.83;0.90;;;5.40;99.90;;;;;;4957543;28;20051;-88
2021/12/24 12:00:26;;;;;;;2.10;1.00;;;5.40;99.90;;;;;;4957719;28;20043;-82
2021/12/24 12:02:52;;;;;;;2.25;1.15;;;5.40;99.90;;;;;;4958126;28;20090;-86
2021/12/24 12:05:33;;;;;;;2.17;1.05;;;5.80;99.90;;;;;;4974895;28;20054;-86
2021/12/24 12:08:27;;;;;;;1.40;0.98;;;5.40;99.90;;;;;;4957380;28;20047;-87
2021/12/24 12:11:24;;;;;;;2.33;1.27;;;5.50;99.90;;;;;;4975103;28;20059;-85
2021/12/24 12:14:01;;;;;;;1.65;0.82;;;5.50;99.90;;;;;;4975910;28;20038;-86
2021/12/24 12:16:42;;;;;;;2.78;1.08;;;5.50;99.90;;;;;;4974638;28;20043;-87
2021/12/24 12:25:06;;;;;;;2.08;1.00;;;6.10;99.90;;;;;;4918113;29;20059;-85
2021/12/24 12:27:53;;;;;;;1.23;0.90;;;5.40;99.90;;;;;;4918128;29;20055;-86
2021/12/24 12:30:39;;;;;;;1.30;0.85;;;5.60;99.90;;;;;;4948503;29;20051;-88
2021/12/24 12:33:18;;;;;;;2.78;1.30;;;5.70;99.90;;;;;;4952871;29;20087;-88
2021/12/24 12:35:51;;;;;;;2.70;1.42;;;5.70;99.90;;;;;;4953275;29;20055;-84
2021/12/24 12:38:41;;;;;;;2.50;1.58;;;5.80;99.90;;;;;;4952543;29;20541;-86
2021/12/24 12:41:34;;;;;;;3.83;1.83;;;5.80;99.90;;;;;;4953345;28;20074;-90
2021/12/24 12:44:06;;;;;;;2.90;1.42;;;5.90;99.90;;;;;;4936639;29;20151;-90
2021/12/24 12:46:39;;;;;;;5.05;2.00;;;5.90;99.90;;;;;;4937519;29;20059;-87
2021/12/24 12:49:07;;;;;;;2.85;1.27;;;6.00;99.90;;;;;;4952994;29;20106;-92
2021/12/24 12:51:51;;;;;;;3.20;1.60;;;6.00;99.90;;;;;;4953827;28;20055;-88
2021/12/24 12:54:41;;;;;;;3.60;1.65;;;6.40;99.90;;;;;;4936622;29;20134;-87
2021/12/24 12:57:08;;;;;;;2.72;1.67;;;6.00;99.90;;;;;;4936854;29;20105;-89
2021/12/24 12:59:34;;;;;;;2.08;1.63;;;6.80;99.90;;;;;;4971911;28;20075;-88
2021/12/24 13:02:01;;;;;;;2.03;1.40;;;6.70;99.90;;;;;;4974335;28;20469;-89
2021/12/24 13:04:27;;;;;;;2.22;1.23;;;6.10;99.90;;;;;;4985395;28;20042;-90
2021/12/24 13:06:54;;;;;;;2.63;1.50;;;6.20;99.90;;;;;;4993411;28;20455;-89
2021/12/24 13:09:32;;;;;;;3.53;2.20;;;6.90;99.90;;;;;;4993851;28;20038;-87
2021/12/24 13:11:59;;;;;;;3.25;1.65;;;6.20;99.90;;;;;;4993391;28;20121;-90
2021/12/24 13:14:28;;;;;;;2.83;1.40;;;6.70;99.90;;;;;;4997157;28;20053;-89
2021/12/24 13:17:16;;;;;;;5.25;1.98;;;6.60;99.90;;;;;;5004355;28;20046;-83
2021/12/24 13:22:31;;;;;;;2.95;1.60;;;6.00;99.90;;;;;;4984211;28;20043;-86
2021/12/24 13:25:00;;;;;;;;;;;6.90;99.90;;;;;;4967142;28;20042;-84
2021/12/24 13:27:39;;;;;;;1.98;1.13;;;6.80;99.90;;;;;;4998726;28;20368;-84
2021/12/24 13:30:13;;;;;;;1.80;1.20;;;6.20;99.90;;;;;;4999889;28;20056;-82
2021/12/24 13:32:41;;;;;;;2.15;1.13;;;6.10;99.90;;;;;;4997476;28;20050;-85
2021/12/24 13:35:07;;;;;;;3.63;1.70;;;6.10;99.90;;;;;;4997531;28;20516;-83
2021/12/24 13:37:33;;;;;;;3.08;1.50;;;6.20;99.90;;;;;;4997369;28;20053;-82
2021/12/24 13:39:59;;;;;;;1.98;1.13;;;6.60;99.90;;;;;;4995425;28;20039;-84
2021/12/24 13:42:25;;;;;;;1.50;0.90;;;6.20;99.90;;;;;;4996784;28;20069;-84
2021/12/24 13:45:00;;;;;;;1.75;1.00;;;6.10;99.90;;;;;;4989716;28;20133;-83
2021/12/24 13:47:43;;;;;;;1.50;0.90;;;6.10;99.90;;;;;;4982995;28;20477;-79
2021/12/24 13:55:35;;;;;;;1.25;0.70;;;6.70;99.90;;;;;;4959953;28;20134;-82
2021/12/24 13:58:03;;;;;;;1.80;1.00;;;6.10;99.90;;;;;;4987416;28;20113;-79
2021/12/24 14:00:31;;;;;;;2.00;0.88;;;6.40;99.90;;;;;;4995523;28;20054;-82
2021/12/24 14:03:07;;;;;;;1.35;0.82;;;6.40;99.90;;;;;;4985295;28;20125;-81
2021/12/24 14:05:42;;;;;;;;;;;6.10;99.90;;;;;;5016660;28;20483;-81
2021/12/24 14:08:18;;;;;;;4.85;2.20;;;6.00;99.90;;;;;;5016439;28;19921;-80
2021/12/24 14:10:46;;;;;;;3.65;1.80;;;6.20;99.90;;;;;;4998926;28;20507;-80
2021/12/24 14:13:28;;;;;;;2.63;1.40;;;6.30;99.90;;;;;;4976912;28;20054;-81
2021/12/24 14:18:53;;;;;;;2.97;0.50;;;6.30;99.90;;;;;;4996237;28;20080;-84
2021/12/24 14:24:18;;;;;;;1.95;0.77;;;6.20;99.90;;;;;;4976865;28;20046;-88
2021/12/24 14:26:54;;;;;;;1.70;0.50;;;6.10;99.90;;;;;;4976652;28;20397;-87
2021/12/24 14:29:26;;;;;;;1.13;0.30;;;6.60;99.90;;;;;;4976925;28;20042;-86
2021/12/24 14:31:54;;;;;;;0.30;0.30;;;6.00;99.90;;;;;;4976968;28;20054;-88
2021/12/24 14:34:28;;;;;;;1.42;0.35;;;6.00;99.90;;;;;;4978236;28;20050;-88
2021/12/24 14:37:18;;;;;;;2.13;0.30;;;6.20;99.90;;;;;;4976644;28;20497;-87
2021/12/24 14:39:48;;;;;;;1.45;0.30;;;6.00;99.90;;;;;;4976771;28;20097;-88
2021/12/24 14:42:17;;;;;;;1.02;0.20;;;6.50;99.90;;;;;;4976020;28;20058;-88
2021/12/24 14:44:44;;;;;;;1.70;0.30;;;5.90;99.90;;;;;;4995807;28;20062;-88
2021/12/24 14:47:12;;;;;;;1.67;0.40;;;6.00;99.90;;;;;;4995871;28;20046;-88
2021/12/24 14:49:40;;;;;;;5.55;0.40;;;5.80;99.90;;;;;;4978455;28;20129;-88
2021/12/24 14:52:22;;;;;;;3.33;0.30;;;5.80;99.90;;;;;;4989943;28;20110;-87
2021/12/24 14:55:16;;;;;;;0.80;0.30;;;5.80;99.90;;;;;;4976431;28;20437;-88
2021/12/24 14:57:52;;;;;;;2.22;0.60;;;5.80;99.90;;;;;;4959102;28;20051;-88
2021/12/24 15:00:21;;;;;;;0.65;0.40;;;5.80;99.90;;;;;;4976198;28;20130;-89
2021/12/24 15:02:49;;;;;;;4.32;0.90;;;5.80;99.90;;;;;;4976447;28;20043;-88
2021/12/24 15:05:31;;;;;;;4.63;0.70;;;5.70;99.90;;;;;;4958943;28;20543;-87
2021/12/24 15:07:59;;;;;;;4.05;0.82;;;5.60;99.90;;;;;;4958568;28;20079;-88
2021/12/24 15:10:24;;;;;;;3.25;0.38;;;5.50;99.90;;;;;;4958768;28;20050;-88